sensor_id;sensor_type;location;lat;lon;timestamp;P1;durP1;ratioP1;P2;durP2;ratioP2
11269;SDS011;5692;48.956;9.200;2023-05-19T00:00:59;166.82;;;158.82;;
11269;SDS011;5692;48.956;9.200;2023-05-19T00:03:25;158.85;;;151.25;;
11269;SDS011;5692;48.956;9.200;2023-05-19T00:05:52;181.25;;;172.57;;
11269;SDS011;5692;48.956;9.200;2023-05-19T00:08:18;173.77;;;165.45;;
11269;SDS011;5692;48.956;9.200;2023-05-19T00:10:45;166.38;;;158.38;;
11269;SDS011;5692;48.956;9.200;2023-05-19T00:13:11;163.82;;;155.98;;
11269;SDS011;5692;48.956;9.200;2023-05-19T00:15:37;171.65;;;163.43;;
11269;SDS011;5692;48.956;9.200;2023-05-19T00:18:04;168.73;;;160.65;;
11269;SDS011;5692;48.956;9.200;2023-05-19T00:20:35;172.40;;;164.15;;
11269;SDS011;5692;48.956;9.200;2023-05-19T00:23:01;168.70;;;160.60;;
11269;SDS011;5692;48.956;9.200;2023-05-19T00:25:27;167.00;;;159.00;;
11269;SDS011;5692;48.956;9.200;2023-05-19T00:27:53;168.88;;;160.77;;
11269;SDS011;5692;48.956;9.200;2023-05-19T00:30:20;167.35;;;159.35;;
11269;SDS011;5692;48.956;9.200;2023-05-19T00:32:47;170.40;;;162.20;;
11269;SDS011;5692;48.956;9.200;2023-05-19T00:35:13;159.88;;;152.18;;
11269;SDS011;5692;48.956;9.200;2023-05-19T00:37:39;172.70;;;164.43;;
11269;SDS011;5692;48.956;9.200;2023-05-19T00:40:05;159.60;;;151.95;;
11269;SDS011;5692;48.956;9.200;2023-05-19T00:42:31;158.95;;;151.35;;
11269;SDS011;5692;48.956;9.200;2023-05-19T00:44:57;155.05;;;147.63;;
11269;SDS011;5692;48.956;9.200;2023-05-19T00:47:23;166.90;;;158.90;;
11269;SDS011;5692;48.956;9.200;2023-05-19T00:49:49;172.23;;;163.97;;
11269;SDS011;5692;48.956;9.200;2023-05-19T00:52:15;165.17;;;157.27;;
11269;SDS011;5692;48.956;9.200;2023-05-19T00:54:42;161.57;;;153.83;;
11269;SDS011;5692;48.956;9.200;2023-05-19T00:57:09;161.07;;;153.38;;
11269;SDS011;5692;48.956;9.200;2023-05-19T00:59:35;155.30;;;147.88;;
11269;SDS011;5692;48.956;9.200;2023-05-19T01:02:01;157.43;;;149.88;;
11269;SDS011;5692;48.956;9.200;2023-05-19T01:04:27;158.23;;;150.63;;
11269;SDS011;5692;48.956;9.200;2023-05-19T01:06:53;165.38;;;157.45;;
11269;SDS011;5692;48.956;9.200;2023-05-19T01:09:20;157.55;;;150.00;;
11269;SDS011;5692;48.956;9.200;2023-05-19T01:11:47;169.60;;;161.48;;
11269;SDS011;5692;48.956;9.200;2023-05-19T01:14:13;162.48;;;154.68;;
11269;SDS011;5692;48.956;9.200;2023-05-19T01:16:39;173.45;;;165.15;;
11269;SDS011;5692;48.956;9.200;2023-05-19T01:31:58;185.52;;;176.63;;
11269;SDS011;5692;48.956;9.200;2023-05-19T01:34:25;176.07;;;167.63;;
11269;SDS011;5692;48.956;9.200;2023-05-19T01:36:51;181.90;;;173.20;;
11269;SDS011;5692;48.956;9.200;2023-05-19T01:39:18;181.20;;;172.50;;
11269;SDS011;5692;48.956;9.200;2023-05-19T01:41:44;178.40;;;169.85;;
11269;SDS011;5692;48.956;9.200;2023-05-19T01:44:11;174.73;;;166.38;;
11269;SDS011;5692;48.956;9.200;2023-05-19T01:46:37;171.60;;;163.40;;
11269;SDS011;5692;48.956;9.200;2023-05-19T01:49:04;167.32;;;159.30;;
11269;SDS011;5692;48.956;9.200;2023-05-19T01:51:30;165.57;;;157.65;;
11269;SDS011;5692;48.956;9.200;2023-05-19T01:53:56;172.57;;;164.27;;
11269;SDS011;5692;48.956;9.200;2023-05-19T01:56:31;182.55;;;173.82;;
11269;SDS011;5692;48.956;9.200;2023-05-19T01:59:00;168.75;;;160.65;;
11269;SDS011;5692;48.956;9.200;2023-05-19T02:01:29;173.90;;;165.60;;
11269;SDS011;5692;48.956;9.200;2023-05-19T02:11:31;158.82;;;151.20;;
11269;SDS011;5692;48.956;9.200;2023-05-19T02:14:01;161.25;;;153.55;;
11269;SDS011;5692;48.956;9.200;2023-05-19T02:16:30;171.73;;;163.50;;
11269;SDS011;5692;48.956;9.200;2023-05-19T02:18:58;170.15;;;162.00;;
11269;SDS011;5692;48.956;9.200;2023-05-19T02:21:24;170.95;;;162.75;;
11269;SDS011;5692;48.956;9.200;2023-05-19T02:23:50;161.77;;;154.02;;
11269;SDS011;5692;48.956;9.200;2023-05-19T02:26:16;169.97;;;161.83;;
11269;SDS011;5692;48.956;9.200;2023-05-19T02:28:45;169.35;;;161.25;;
11269;SDS011;5692;48.956;9.200;2023-05-19T02:31:11;167.55;;;159.52;;
11269;SDS011;5692;48.956;9.200;2023-05-19T02:33:36;160.07;;;152.40;;
11269;SDS011;5692;48.956;9.200;2023-05-19T02:36:03;181.65;;;172.95;;
11269;SDS011;5692;48.956;9.200;2023-05-19T02:38:29;157.88;;;150.30;;
11269;SDS011;5692;48.956;9.200;2023-05-19T02:40:55;171.43;;;163.23;;
11269;SDS011;5692;48.956;9.200;2023-05-19T02:43:21;181.45;;;172.75;;
11269;SDS011;5692;48.956;9.200;2023-05-19T02:45:47;168.32;;;160.23;;
11269;SDS011;5692;48.956;9.200;2023-05-19T02:48:13;166.83;;;158.83;;
11269;SDS011;5692;48.956;9.200;2023-05-19T02:50:39;173.48;;;165.18;;
11269;SDS011;5692;48.956;9.200;2023-05-19T02:53:06;169.23;;;161.13;;
11269;SDS011;5692;48.956;9.200;2023-05-19T02:55:32;151.20;;;143.95;;
11269;SDS011;5692;48.956;9.200;2023-05-19T02:57:58;156.93;;;149.40;;
11269;SDS011;5692;48.956;9.200;2023-05-19T03:00:24;152.90;;;145.60;;
11269;SDS011;5692;48.956;9.200;2023-05-19T03:02:50;159.93;;;152.27;;
11269;SDS011;5692;48.956;9.200;2023-05-19T03:05:16;158.00;;;150.43;;
11269;SDS011;5692;48.956;9.200;2023-05-19T03:07:44;155.38;;;147.93;;
11269;SDS011;5692;48.956;9.200;2023-05-19T03:10:10;147.85;;;140.75;;
11269;SDS011;5692;48.956;9.200;2023-05-19T03:12:36;163.13;;;155.33;;
11269;SDS011;5692;48.956;9.200;2023-05-19T03:15:02;153.75;;;146.38;;
11269;SDS011;5692;48.956;9.200;2023-05-19T03:17:31;154.27;;;146.88;;
11269;SDS011;5692;48.956;9.200;2023-05-19T03:19:58;156.55;;;149.05;;
11269;SDS011;5692;48.956;9.200;2023-05-19T03:22:24;156.35;;;148.85;;
11269;SDS011;5692;48.956;9.200;2023-05-19T03:24:50;159.90;;;152.20;;
11269;SDS011;5692;48.956;9.200;2023-05-19T03:27:18;159.20;;;151.60;;
11269;SDS011;5692;48.956;9.200;2023-05-19T03:29:44;161.45;;;153.70;;
11269;SDS011;5692;48.956;9.200;2023-05-19T03:32:10;168.15;;;160.10;;
11269;SDS011;5692;48.956;9.200;2023-05-19T03:34:36;145.33;;;138.37;;
11269;SDS011;5692;48.956;9.200;2023-05-19T03:37:02;146.77;;;139.73;;
11269;SDS011;5692;48.956;9.200;2023-05-19T03:39:28;152.38;;;145.07;;
11269;SDS011;5692;48.956;9.200;2023-05-19T03:41:54;148.55;;;141.45;;
11269;SDS011;5692;48.956;9.200;2023-05-19T03:44:20;133.20;;;126.80;;
11269;SDS011;5692;48.956;9.200;2023-05-19T03:46:46;141.43;;;134.65;;
11269;SDS011;5692;48.956;9.200;2023-05-19T03:49:12;147.52;;;140.43;;
11269;SDS011;5692;48.956;9.200;2023-05-19T03:51:39;143.85;;;136.95;;
11269;SDS011;5692;48.956;9.200;2023-05-19T03:54:05;137.85;;;131.23;;
11269;SDS011;5692;48.956;9.200;2023-05-19T03:56:31;146.20;;;139.20;;
11269;SDS011;5692;48.956;9.200;2023-05-19T03:58:57;146.98;;;139.93;;
11269;SDS011;5692;48.956;9.200;2023-05-19T04:01:23;156.50;;;149.00;;
11269;SDS011;5692;48.956;9.200;2023-05-19T04:03:49;162.43;;;154.63;;
11269;SDS011;5692;48.956;9.200;2023-05-19T04:06:15;167.47;;;159.43;;
11269;SDS011;5692;48.956;9.200;2023-05-19T04:08:42;155.80;;;148.30;;
11269;SDS011;5692;48.956;9.200;2023-05-19T04:11:08;159.40;;;151.80;;
11269;SDS011;5692;48.956;9.200;2023-05-19T04:13:34;148.48;;;141.38;;
11269;SDS011;5692;48.956;9.200;2023-05-19T04:16:00;152.98;;;145.63;;
11269;SDS011;5692;48.956;9.200;2023-05-19T04:18:26;150.93;;;143.70;;
11269;SDS011;5692;48.956;9.200;2023-05-19T04:20:52;125.10;;;119.10;;
11269;SDS011;5692;48.956;9.200;2023-05-19T04:23:18;152.23;;;144.93;;
11269;SDS011;5692;48.956;9.200;2023-05-19T04:25:44;146.70;;;139.67;;
11269;SDS011;5692;48.956;9.200;2023-05-19T04:28:12;141.65;;;134.85;;
11269;SDS011;5692;48.956;9.200;2023-05-19T04:30:38;144.13;;;137.23;;
11269;SDS011;5692;48.956;9.200;2023-05-19T04:33:06;142.48;;;135.65;;
11269;SDS011;5692;48.956;9.200;2023-05-19T04:35:33;148.00;;;140.90;;
11269;SDS011;5692;48.956;9.200;2023-05-19T04:37:59;149.55;;;142.35;;
11269;SDS011;5692;48.956;9.200;2023-05-19T04:40:25;148.82;;;141.68;;
11269;SDS011;5692;48.956;9.200;2023-05-19T04:42:54;147.35;;;140.25;;
11269;SDS011;5692;48.956;9.200;2023-05-19T04:45:21;143.80;;;136.90;;
11269;SDS011;5692;48.956;9.200;2023-05-19T04:47:47;143.90;;;137.00;;
11269;SDS011;5692;48.956;9.200;2023-05-19T04:50:13;152.57;;;145.27;;
11269;SDS011;5692;48.956;9.200;2023-05-19T04:52:40;143.40;;;136.50;;
11269;SDS011;5692;48.956;9.200;2023-05-19T04:55:06;144.50;;;137.60;;
11269;SDS011;5692;48.956;9.200;2023-05-19T04:57:35;145.18;;;138.18;;
11269;SDS011;5692;48.956;9.200;2023-05-19T05:00:01;154.32;;;146.93;;
11269;SDS011;5692;48.956;9.200;2023-05-19T05:02:31;156.55;;;149.05;;
11269;SDS011;5692;48.956;9.200;2023-05-19T05:04:57;143.20;;;136.35;;
11269;SDS011;5692;48.956;9.200;2023-05-19T05:07:23;149.13;;;141.98;;
11269;SDS011;5692;48.956;9.200;2023-05-19T05:09:49;146.82;;;139.82;;
11269;SDS011;5692;48.956;9.200;2023-05-19T05:12:19;151.35;;;144.10;;
11269;SDS011;5692;48.956;9.200;2023-05-19T05:14:46;140.75;;;134.00;;
11269;SDS011;5692;48.956;9.200;2023-05-19T05:17:12;128.20;;;122.05;;
11269;SDS011;5692;48.956;9.200;2023-05-19T05:19:38;138.05;;;131.45;;
11269;SDS011;5692;48.956;9.200;2023-05-19T05:22:04;133.75;;;127.35;;
11269;SDS011;5692;48.956;9.200;2023-05-19T05:24:31;144.20;;;137.30;;
11269;SDS011;5692;48.956;9.200;2023-05-19T05:26:57;130.77;;;124.47;;
11269;SDS011;5692;48.956;9.200;2023-05-19T05:29:23;144.23;;;137.32;;
11269;SDS011;5692;48.956;9.200;2023-05-19T05:31:49;139.73;;;133.02;;
11269;SDS011;5692;48.956;9.200;2023-05-19T05:34:15;137.43;;;130.85;;
11269;SDS011;5692;48.956;9.200;2023-05-19T05:36:42;143.93;;;137.02;;
11269;SDS011;5692;48.956;9.200;2023-05-19T05:39:07;144.30;;;137.40;;
11269;SDS011;5692;48.956;9.200;2023-05-19T05:41:33;142.85;;;136.00;;
11269;SDS011;5692;48.956;9.200;2023-05-19T05:44:00;148.70;;;141.60;;
11269;SDS011;5692;48.956;9.200;2023-05-19T05:46:26;146.82;;;139.80;;
11269;SDS011;5692;48.956;9.200;2023-05-19T05:48:52;145.13;;;138.13;;
11269;SDS011;5692;48.956;9.200;2023-05-19T05:51:21;162.60;;;154.80;;
11269;SDS011;5692;48.956;9.200;2023-05-19T05:53:51;149.32;;;142.18;;
11269;SDS011;5692;48.956;9.200;2023-05-19T05:56:17;156.43;;;148.93;;
11269;SDS011;5692;48.956;9.200;2023-05-19T05:58:43;148.48;;;141.38;;
11269;SDS011;5692;48.956;9.200;2023-05-19T06:01:10;160.43;;;152.73;;
11269;SDS011;5692;48.956;9.200;2023-05-19T06:03:39;167.73;;;159.68;;
11269;SDS011;5692;48.956;9.200;2023-05-19T06:06:05;161.68;;;153.93;;
11269;SDS011;5692;48.956;9.200;2023-05-19T06:08:31;169.00;;;160.93;;
11269;SDS011;5692;48.956;9.200;2023-05-19T06:10:57;163.88;;;156.00;;
11269;SDS011;5692;48.956;9.200;2023-05-19T06:13:23;170.10;;;161.95;;
11269;SDS011;5692;48.956;9.200;2023-05-19T06:15:50;170.77;;;162.57;;
11269;SDS011;5692;48.956;9.200;2023-05-19T06:18:16;166.02;;;158.07;;
11269;SDS011;5692;48.956;9.200;2023-05-19T06:20:42;167.00;;;159.00;;
11269;SDS011;5692;48.956;9.200;2023-05-19T06:23:08;174.32;;;165.98;;
11269;SDS011;5692;48.956;9.200;2023-05-19T06:25:34;177.38;;;168.88;;
11269;SDS011;5692;48.956;9.200;2023-05-19T06:28:01;183.23;;;174.45;;
11269;SDS011;5692;48.956;9.200;2023-05-19T06:30:27;172.65;;;164.38;;
11269;SDS011;5692;48.956;9.200;2023-05-19T06:32:53;189.25;;;180.20;;
11269;SDS011;5692;48.956;9.200;2023-05-19T06:35:19;189.50;;;180.40;;
11269;SDS011;5692;48.956;9.200;2023-05-19T06:37:45;169.65;;;161.55;;
11269;SDS011;5692;48.956;9.200;2023-05-19T06:40:11;181.23;;;172.52;;
11269;SDS011;5692;48.956;9.200;2023-05-19T06:42:37;169.82;;;161.73;;
11269;SDS011;5692;48.956;9.200;2023-05-19T06:45:03;180.97;;;172.30;;
11269;SDS011;5692;48.956;9.200;2023-05-19T06:47:30;177.07;;;168.57;;
11269;SDS011;5692;48.956;9.200;2023-05-19T06:49:56;161.98;;;154.20;;
11269;SDS011;5692;48.956;9.200;2023-05-19T06:52:22;171.48;;;163.27;;
11269;SDS011;5692;48.956;9.200;2023-05-19T06:54:48;180.90;;;172.23;;
11269;SDS011;5692;48.956;9.200;2023-05-19T06:57:14;181.30;;;172.60;;
11269;SDS011;5692;48.956;9.200;2023-05-19T06:59:40;182.17;;;173.43;;
11269;SDS011;5692;48.956;9.200;2023-05-19T07:02:07;183.68;;;174.88;;
11269;SDS011;5692;48.956;9.200;2023-05-19T07:04:36;177.73;;;169.23;;
11269;SDS011;5692;48.956;9.200;2023-05-19T07:07:06;178.20;;;169.68;;
11269;SDS011;5692;48.956;9.200;2023-05-19T07:09:32;188.15;;;179.15;;
11269;SDS011;5692;48.956;9.200;2023-05-19T07:11:58;176.65;;;168.18;;
11269;SDS011;5692;48.956;9.200;2023-05-19T07:14:25;183.88;;;175.07;;
11269;SDS011;5692;48.956;9.200;2023-05-19T07:16:51;187.40;;;178.40;;
11269;SDS011;5692;48.956;9.200;2023-05-19T07:19:17;188.85;;;179.80;;
11269;SDS011;5692;48.956;9.200;2023-05-19T07:21:49;180.52;;;171.88;;
11269;SDS011;5692;48.956;9.200;2023-05-19T07:24:15;174.45;;;166.10;;
11269;SDS011;5692;48.956;9.200;2023-05-19T07:26:41;165.85;;;157.90;;
11269;SDS011;5692;48.956;9.200;2023-05-19T07:29:10;182.80;;;174.02;;
11269;SDS011;5692;48.956;9.200;2023-05-19T07:31:57;192.70;;;183.48;;
11269;SDS011;5692;48.956;9.200;2023-05-19T07:34:27;188.13;;;179.10;;
11269;SDS011;5692;48.956;9.200;2023-05-19T07:36:56;184.45;;;175.63;;
11269;SDS011;5692;48.956;9.200;2023-05-19T07:39:22;193.02;;;183.77;;
11269;SDS011;5692;48.956;9.200;2023-05-19T07:41:51;187.80;;;178.82;;
11269;SDS011;5692;48.956;9.200;2023-05-19T07:44:19;181.35;;;172.65;;
11269;SDS011;5692;48.956;9.200;2023-05-19T07:46:45;176.52;;;168.07;;
11269;SDS011;5692;48.956;9.200;2023-05-19T07:49:11;174.93;;;166.55;;
11269;SDS011;5692;48.956;9.200;2023-05-19T07:51:37;185.48;;;176.60;;
11269;SDS011;5692;48.956;9.200;2023-05-19T07:54:05;179.52;;;170.93;;
11269;SDS011;5692;48.956;9.200;2023-05-19T07:56:32;174.30;;;165.95;;
11269;SDS011;5692;48.956;9.200;2023-05-19T07:59:01;169.82;;;161.73;;
11269;SDS011;5692;48.956;9.200;2023-05-19T08:01:30;171.05;;;162.88;;
11269;SDS011;5692;48.956;9.200;2023-05-19T08:03:58;167.38;;;159.38;;
11269;SDS011;5692;48.956;9.200;2023-05-19T08:06:24;184.27;;;175.48;;
11269;SDS011;5692;48.956;9.200;2023-05-19T08:08:50;193.98;;;184.68;;
11269;SDS011;5692;48.956;9.200;2023-05-19T08:11:18;170.18;;;162.02;;
11269;SDS011;5692;48.956;9.200;2023-05-19T08:13:47;173.55;;;165.25;;
11269;SDS011;5692;48.956;9.200;2023-05-19T08:16:13;169.60;;;161.50;;
11269;SDS011;5692;48.956;9.200;2023-05-19T08:18:40;158.85;;;151.25;;
11269;SDS011;5692;48.956;9.200;2023-05-19T08:21:06;161.52;;;153.80;;
11269;SDS011;5692;48.956;9.200;2023-05-19T08:23:32;170.10;;;161.95;;
11269;SDS011;5692;48.956;9.200;2023-05-19T08:25:58;158.30;;;150.70;;
11269;SDS011;5692;48.956;9.200;2023-05-19T08:28:25;166.15;;;158.20;;
11269;SDS011;5692;48.956;9.200;2023-05-19T08:30:51;159.93;;;152.23;;
11269;SDS011;5692;48.956;9.200;2023-05-19T08:33:17;163.13;;;155.32;;
11269;SDS011;5692;48.956;9.200;2023-05-19T08:35:45;162.32;;;154.52;;
11269;SDS011;5692;48.956;9.200;2023-05-19T08:38:11;166.93;;;158.93;;
11269;SDS011;5692;48.956;9.200;2023-05-19T08:40:42;150.70;;;143.48;;
11269;SDS011;5692;48.956;9.200;2023-05-19T08:43:11;168.45;;;160.35;;
11269;SDS011;5692;48.956;9.200;2023-05-19T08:45:38;167.18;;;159.18;;
11269;SDS011;5692;48.956;9.200;2023-05-19T08:48:05;157.25;;;149.73;;
11269;SDS011;5692;48.956;9.200;2023-05-19T08:50:34;159.45;;;151.82;;
11269;SDS011;5692;48.956;9.200;2023-05-19T08:53:03;159.18;;;151.57;;
11269;SDS011;5692;48.956;9.200;2023-05-19T08:55:54;152.38;;;145.07;;
11269;SDS011;5692;48.956;9.200;2023-05-19T08:58:23;147.48;;;140.38;;
11269;SDS011;5692;48.956;9.200;2023-05-19T09:00:49;157.43;;;149.90;;
11269;SDS011;5692;48.956;9.200;2023-05-19T09:03:18;154.73;;;147.32;;
11269;SDS011;5692;48.956;9.200;2023-05-19T09:05:44;174.38;;;166.02;;
11269;SDS011;5692;48.956;9.200;2023-05-19T09:08:10;155.82;;;148.35;;
11269;SDS011;5692;48.956;9.200;2023-05-19T09:10:37;151.95;;;144.65;;
11269;SDS011;5692;48.956;9.200;2023-05-19T09:13:03;150.10;;;142.90;;
11269;SDS011;5692;48.956;9.200;2023-05-19T09:15:32;150.30;;;143.10;;
11269;SDS011;5692;48.956;9.200;2023-05-19T09:18:07;164.43;;;156.52;;
11269;SDS011;5692;48.956;9.200;2023-05-19T09:20:36;168.80;;;160.70;;
11269;SDS011;5692;48.956;9.200;2023-05-19T09:23:04;174.40;;;166.05;;
11269;SDS011;5692;48.956;9.200;2023-05-19T09:25:30;176.13;;;167.68;;
11269;SDS011;5692;48.956;9.200;2023-05-19T09:27:57;178.75;;;170.18;;
11269;SDS011;5692;48.956;9.200;2023-05-19T09:30:23;184.87;;;176.00;;
11269;SDS011;5692;48.956;9.200;2023-05-19T09:32:50;171.70;;;163.48;;
11269;SDS011;5692;48.956;9.200;2023-05-19T09:35:16;178.80;;;170.20;;
11269;SDS011;5692;48.956;9.200;2023-05-19T09:37:44;182.05;;;173.35;;
11269;SDS011;5692;48.956;9.200;2023-05-19T09:40:12;164.85;;;156.95;;
11269;SDS011;5692;48.956;9.200;2023-05-19T09:42:39;162.85;;;155.05;;
11269;SDS011;5692;48.956;9.200;2023-05-19T09:45:07;165.98;;;158.02;;
11269;SDS011;5692;48.956;9.200;2023-05-19T09:47:36;172.85;;;164.57;;
11269;SDS011;5692;48.956;9.200;2023-05-19T09:50:09;153.30;;;145.95;;
11269;SDS011;5692;48.956;9.200;2023-05-19T09:52:39;164.55;;;156.65;;
11269;SDS011;5692;48.956;9.200;2023-05-19T09:55:08;165.00;;;157.10;;
11269;SDS011;5692;48.956;9.200;2023-05-19T09:57:34;165.18;;;157.27;;
11269;SDS011;5692;48.956;9.200;2023-05-19T10:00:10;162.95;;;155.15;;
11269;SDS011;5692;48.956;9.200;2023-05-19T10:02:42;168.45;;;160.40;;
11269;SDS011;5692;48.956;9.200;2023-05-19T10:05:15;165.73;;;157.77;;
11269;SDS011;5692;48.956;9.200;2023-05-19T10:07:41;167.27;;;159.27;;
11269;SDS011;5692;48.956;9.200;2023-05-19T10:10:09;170.48;;;162.27;;
11269;SDS011;5692;48.956;9.200;2023-05-19T10:12:44;171.48;;;163.27;;
11269;SDS011;5692;48.956;9.200;2023-05-19T10:15:19;156.25;;;148.77;;
11269;SDS011;5692;48.956;9.200;2023-05-19T10:17:45;179.70;;;171.10;;
11269;SDS011;5692;48.956;9.200;2023-05-19T10:20:12;170.67;;;162.47;;
11269;SDS011;5692;48.956;9.200;2023-05-19T10:22:39;158.52;;;150.93;;
11269;SDS011;5692;48.956;9.200;2023-05-19T10:25:06;186.95;;;178.00;;
11269;SDS011;5692;48.956;9.200;2023-05-19T10:27:38;177.75;;;169.23;;
11269;SDS011;5692;48.956;9.200;2023-05-19T10:30:12;181.15;;;172.45;;
11269;SDS011;5692;48.956;9.200;2023-05-19T10:32:40;195.73;;;186.35;;
11269;SDS011;5692;48.956;9.200;2023-05-19T10:37:36;175.00;;;166.60;;
11269;SDS011;5692;48.956;9.200;2023-05-19T10:40:09;183.27;;;174.48;;
11269;SDS011;5692;48.956;9.200;2023-05-19T10:45:32;184.43;;;175.63;;
11269;SDS011;5692;48.956;9.200;2023-05-19T10:47:59;179.80;;;171.20;;
11269;SDS011;5692;48.956;9.200;2023-05-19T10:50:25;180.98;;;172.32;;
11269;SDS011;5692;48.956;9.200;2023-05-19T10:52:54;178.68;;;170.10;;
11269;SDS011;5692;48.956;9.200;2023-05-19T10:58:06;182.98;;;174.18;;
11269;SDS011;5692;48.956;9.200;2023-05-19T11:00:33;187.05;;;178.10;;
11269;SDS011;5692;48.956;9.200;2023-05-19T11:03:14;182.48;;;173.73;;
11269;SDS011;5692;48.956;9.200;2023-05-19T11:05:42;183.20;;;174.45;;
11269;SDS011;5692;48.956;9.200;2023-05-19T11:08:10;195.02;;;185.70;;
11269;SDS011;5692;48.956;9.200;2023-05-19T11:10:37;179.70;;;171.10;;
11269;SDS011;5692;48.956;9.200;2023-05-19T11:13:03;174.40;;;166.05;;
11269;SDS011;5692;48.956;9.200;2023-05-19T11:15:33;185.25;;;176.38;;
11269;SDS011;5692;48.956;9.200;2023-05-19T11:18:00;189.90;;;180.80;;
11269;SDS011;5692;48.956;9.200;2023-05-19T11:20:27;185.98;;;177.07;;
11269;SDS011;5692;48.956;9.200;2023-05-19T11:23:00;167.00;;;159.00;;
11269;SDS011;5692;48.956;9.200;2023-05-19T11:25:42;172.70;;;164.40;;
11269;SDS011;5692;48.956;9.200;2023-05-19T11:28:11;171.80;;;163.60;;
11269;SDS011;5692;48.956;9.200;2023-05-19T11:30:38;177.93;;;169.40;;
11269;SDS011;5692;48.956;9.200;2023-05-19T11:33:06;169.63;;;161.52;;
11269;SDS011;5692;48.956;9.200;2023-05-19T11:35:32;178.05;;;169.52;;
11269;SDS011;5692;48.956;9.200;2023-05-19T11:38:02;171.05;;;162.85;;
11269;SDS011;5692;48.956;9.200;2023-05-19T11:40:29;173.25;;;164.95;;
11269;SDS011;5692;48.956;9.200;2023-05-19T11:42:56;177.88;;;169.35;;
11269;SDS011;5692;48.956;9.200;2023-05-19T11:45:29;195.10;;;185.77;;
11269;SDS011;5692;48.956;9.200;2023-05-19T11:47:57;182.98;;;174.20;;
11269;SDS011;5692;48.956;9.200;2023-05-19T11:50:23;173.18;;;164.88;;
11269;SDS011;5692;48.956;9.200;2023-05-19T11:52:53;191.15;;;182.00;;
11269;SDS011;5692;48.956;9.200;2023-05-19T11:55:19;185.00;;;176.15;;
11269;SDS011;5692;48.956;9.200;2023-05-19T11:58:01;182.93;;;174.15;;
11269;SDS011;5692;48.956;9.200;2023-05-19T12:00:28;178.75;;;170.18;;
11269;SDS011;5692;48.956;9.200;2023-05-19T12:02:55;186.25;;;177.35;;
11269;SDS011;5692;48.956;9.200;2023-05-19T12:05:22;173.90;;;165.57;;
11269;SDS011;5692;48.956;9.200;2023-05-19T12:07:48;172.23;;;163.98;;
11269;SDS011;5692;48.956;9.200;2023-05-19T12:10:36;171.18;;;162.98;;
11269;SDS011;5692;48.956;9.200;2023-05-19T12:13:02;171.65;;;163.43;;
11269;SDS011;5692;48.956;9.200;2023-05-19T12:15:34;170.95;;;162.75;;
11269;SDS011;5692;48.956;9.200;2023-05-19T12:18:01;179.05;;;170.48;;
11269;SDS011;5692;48.956;9.200;2023-05-19T12:20:28;171.15;;;162.95;;
11269;SDS011;5692;48.956;9.200;2023-05-19T12:23:01;172.73;;;164.45;;
11269;SDS011;5692;48.956;9.200;2023-05-19T12:25:27;187.30;;;178.32;;
11269;SDS011;5692;48.956;9.200;2023-05-19T12:27:56;179.65;;;171.05;;
11269;SDS011;5692;48.956;9.200;2023-05-19T12:30:29;168.52;;;160.43;;
11269;SDS011;5692;48.956;9.200;2023-05-19T12:32:58;167.77;;;159.73;;
11269;SDS011;5692;48.956;9.200;2023-05-19T12:35:28;170.93;;;162.75;;
11269;SDS011;5692;48.956;9.200;2023-05-19T12:37:56;164.38;;;156.48;;
11269;SDS011;5692;48.956;9.200;2023-05-19T12:40:28;176.02;;;167.60;;
11269;SDS011;5692;48.956;9.200;2023-05-19T12:42:57;179.05;;;170.48;;
11269;SDS011;5692;48.956;9.200;2023-05-19T12:45:23;172.27;;;164.02;;
11269;SDS011;5692;48.956;9.200;2023-05-19T12:47:51;172.02;;;163.80;;
11269;SDS011;5692;48.956;9.200;2023-05-19T12:50:17;187.90;;;178.90;;
11269;SDS011;5692;48.956;9.200;2023-05-19T12:52:50;181.48;;;172.77;;
11269;SDS011;5692;48.956;9.200;2023-05-19T12:55:16;186.60;;;177.65;;
11269;SDS011;5692;48.956;9.200;2023-05-19T12:57:47;176.95;;;168.45;;
11269;SDS011;5692;48.956;9.200;2023-05-19T13:00:20;175.60;;;167.20;;
11269;SDS011;5692;48.956;9.200;2023-05-19T13:03:12;163.80;;;155.95;;
11269;SDS011;5692;48.956;9.200;2023-05-19T13:05:43;149.75;;;142.57;;
11269;SDS011;5692;48.956;9.200;2023-05-19T13:08:20;176.32;;;167.88;;
11269;SDS011;5692;48.956;9.200;2023-05-19T13:10:48;170.73;;;162.52;;
11269;SDS011;5692;48.956;9.200;2023-05-19T13:13:14;176.55;;;168.07;;
11269;SDS011;5692;48.956;9.200;2023-05-19T13:15:41;187.20;;;178.23;;
11269;SDS011;5692;48.956;9.200;2023-05-19T13:18:11;181.48;;;172.77;;
11269;SDS011;5692;48.956;9.200;2023-05-19T13:20:38;175.73;;;167.32;;
11269;SDS011;5692;48.956;9.200;2023-05-19T13:23:04;177.25;;;168.75;;
11269;SDS011;5692;48.956;9.200;2023-05-19T13:25:33;171.45;;;163.25;;
11269;SDS011;5692;48.956;9.200;2023-05-19T13:27:59;180.25;;;171.65;;
11269;SDS011;5692;48.956;9.200;2023-05-19T13:30:29;174.48;;;166.13;;
11269;SDS011;5692;48.956;9.200;2023-05-19T13:32:55;169.30;;;161.20;;
11269;SDS011;5692;48.956;9.200;2023-05-19T13:35:21;170.18;;;162.02;;
11269;SDS011;5692;48.956;9.200;2023-05-19T13:37:47;173.07;;;164.77;;
11269;SDS011;5692;48.956;9.200;2023-05-19T13:40:19;168.38;;;160.30;;
11269;SDS011;5692;48.956;9.200;2023-05-19T13:42:47;166.93;;;158.93;;
11269;SDS011;5692;48.956;9.200;2023-05-19T13:45:13;166.57;;;158.57;;
11269;SDS011;5692;48.956;9.200;2023-05-19T13:47:42;154.15;;;146.75;;
11269;SDS011;5692;48.956;9.200;2023-05-19T13:50:08;147.43;;;140.32;;
11269;SDS011;5692;48.956;9.200;2023-05-19T13:52:39;156.60;;;149.07;;
11269;SDS011;5692;48.956;9.200;2023-05-19T13:55:06;154.73;;;147.32;;
11269;SDS011;5692;48.956;9.200;2023-05-19T13:57:32;147.63;;;140.52;;
11269;SDS011;5692;48.956;9.200;2023-05-19T13:59:58;168.40;;;160.32;;
11269;SDS011;5692;48.956;9.200;2023-05-19T14:02:24;163.40;;;155.57;;
11269;SDS011;5692;48.956;9.200;2023-05-19T14:04:50;174.55;;;166.18;;
11269;SDS011;5692;48.956;9.200;2023-05-19T14:07:19;155.40;;;147.95;;
11269;SDS011;5692;48.956;9.200;2023-05-19T14:09:45;166.88;;;158.88;;
11269;SDS011;5692;48.956;9.200;2023-05-19T14:12:11;161.75;;;154.00;;
11269;SDS011;5692;48.956;9.200;2023-05-19T14:14:37;163.93;;;156.07;;
11269;SDS011;5692;48.956;9.200;2023-05-19T14:17:04;171.52;;;163.32;;
11269;SDS011;5692;48.956;9.200;2023-05-19T14:19:30;175.18;;;166.77;;
11269;SDS011;5692;48.956;9.200;2023-05-19T14:21:56;168.63;;;160.55;;
11269;SDS011;5692;48.956;9.200;2023-05-19T14:24:22;181.75;;;173.05;;
11269;SDS011;5692;48.956;9.200;2023-05-19T14:26:48;176.38;;;167.93;;
11269;SDS011;5692;48.956;9.200;2023-05-19T14:29:14;181.13;;;172.43;;
11269;SDS011;5692;48.956;9.200;2023-05-19T14:31:40;172.85;;;164.57;;
11269;SDS011;5692;48.956;9.200;2023-05-19T14:34:06;167.90;;;159.87;;
11269;SDS011;5692;48.956;9.200;2023-05-19T14:36:32;157.63;;;150.07;;
11269;SDS011;5692;48.956;9.200;2023-05-19T14:38:59;180.27;;;171.63;;